sensor_id;sensor_type;location;lat;lon;timestamp;pressure;altitude;pressure_sealevel;temperature;humidity
45467;BME280;31212;49.734;8.490;2023-04-23T00:01:25;99946.72;;;11.73;100.00
45467;BME280;31212;49.734;8.490;2023-04-23T00:03:54;99959.69;;;11.76;100.00
45467;BME280;31212;49.734;8.490;2023-04-23T00:06:22;99956.28;;;11.68;100.00
45467;BME280;31212;49.734;8.490;2023-04-23T00:08:52;99947.59;;;11.72;100.00
45467;BME280;31212;49.734;8.490;2023-04-23T00:11:21;99945.00;;;11.71;100.00
45467;BME280;31212;49.734;8.490;2023-04-23T00:13:48;99951.06;;;11.70;100.00
45467;BME280;31212;49.734;8.490;2023-04-23T00:16:15;99954.53;;;11.72;100.00
45467;BME280;31212;49.734;8.490;2023-04-23T00:18:41;99947.56;;;11.74;100.00
45467;BME280;31212;49.734;8.490;2023-04-23T00:21:08;99945.00;;;11.71;100.00
45467;BME280;31212;49.734;8.490;2023-04-23T00:23:35;99949.34;;;11.70;100.00
45467;BME280;31212;49.734;8.490;2023-04-23T00:26:01;99943.25;;;11.71;100.00
45467;BME280;31212;49.734;8.490;2023-04-23T00:28:29;99951.97;;;11.70;100.00
45467;BME280;31212;49.734;8.490;2023-04-23T00:30:55;99958.84;;;11.74;100.00
45467;BME280;31212;49.734;8.490;2023-04-23T00:33:22;99951.91;;;11.75;100.00
45467;BME280;31212;49.734;8.490;2023-04-23T00:35:48;99948.44;;;11.76;100.00
45467;BME280;31212;49.734;8.490;2023-04-23T00:38:15;99950.19;;;11.72;100.00
45467;BME280;31212;49.734;8.490;2023-04-23T00:40:41;99954.56;;;11.69;100.00
45467;BME280;31212;49.734;8.490;2023-04-23T00:43:08;99951.91;;;11.75;100.00
45467;BME280;31212;49.734;8.490;2023-04-23T00:45:38;99951.06;;;11.73;100.00
45467;BME280;31212;49.734;8.490;2023-04-23T00:48:05;99951.09;;;11.68;100.00
45467;BME280;31212;49.734;8.490;2023-04-23T00:50:32;99952.78;;;11.72;100.00
45467;BME280;31212;49.734;8.490;2023-04-23T00:52:58;99948.47;;;11.70;100.00
45467;BME280;31212;49.734;8.490;2023-04-23T00:55:25;99951.06;;;11.74;100.00
45467;BME280;31212;49.734;8.490;2023-04-23T00:57:52;99945.78;;;11.79;100.00
45467;BME280;31212;49.734;8.490;2023-04-23T01:00:19;99941.47;;;11.76;100.00
45467;BME280;31212;49.734;8.490;2023-04-23T01:02:48;99943.28;;;11.68;100.00
45467;BME280;31212;49.734;8.490;2023-04-23T01:05:18;99943.19;;;11.81;100.00
45467;BME280;31212;49.734;8.490;2023-04-23T01:07:46;99942.31;;;11.80;100.00
45467;BME280;31212;49.734;8.490;2023-04-23T01:10:13;99941.44;;;11.83;100.00
45467;BME280;31212;49.734;8.490;2023-04-23T01:12:40;99944.94;;;11.80;100.00
45467;BME280;31212;49.734;8.490;2023-04-23T01:15:08;99944.06;;;11.78;100.00
45467;BME280;31212;49.734;8.490;2023-04-23T01:17:34;99938.06;;;11.73;100.00
45467;BME280;31212;49.734;8.490;2023-04-23T01:20:03;99945.84;;;11.74;100.00
45467;BME280;31212;49.734;8.490;2023-04-23T01:22:33;99944.13;;;11.72;100.00
45467;BME280;31212;49.734;8.490;2023-04-23T01:25:00;99943.16;;;11.82;100.00
45467;BME280;31212;49.734;8.490;2023-04-23T01:27:27;99952.69;;;11.83;100.00
45467;BME280;31212;49.734;8.490;2023-04-23T01:29:54;99955.31;;;11.80;100.00
45467;BME280;31212;49.734;8.490;2023-04-23T01:32:21;99957.94;;;11.78;100.00
45467;BME280;31212;49.734;8.490;2023-04-23T01:34:48;99963.16;;;11.77;100.00
45467;BME280;31212;49.734;8.490;2023-04-23T01:37:15;99963.16;;;11.74;100.00
45467;BME280;31212;49.734;8.490;2023-04-23T01:39:43;99967.47;;;11.76;100.00
45467;BME280;31212;49.734;8.490;2023-04-23T01:42:10;99964.03;;;11.77;100.00
45467;BME280;31212;49.734;8.490;2023-04-23T01:44:36;99958.84;;;11.74;100.00
45467;BME280;31212;49.734;8.490;2023-04-23T01:47:03;99969.25;;;11.71;100.00
45467;BME280;31212;49.734;8.490;2023-04-23T01:49:30;99964.91;;;11.75;100.00
45467;BME280;31212;49.734;8.490;2023-04-23T01:51:57;99967.53;;;11.72;100.00
45467;BME280;31212;49.734;8.490;2023-04-23T01:54:24;99958.88;;;11.70;100.00
45467;BME280;31212;49.734;8.490;2023-04-23T01:56:52;99968.41;;;11.71;100.00
45467;BME280;31212;49.734;8.490;2023-04-23T01:59:20;99967.56;;;11.69;100.00
45467;BME280;31212;49.734;8.490;2023-04-23T02:01:48;99970.16;;;11.67;100.00
45467;BME280;31212;49.734;8.490;2023-04-23T02:04:16;99973.59;;;11.72;100.00
45467;BME280;31212;49.734;8.490;2023-04-23T02:06:44;99973.56;;;11.74;100.00
45467;BME280;31212;49.734;8.490;2023-04-23T02:09:12;99978.88;;;11.66;100.00
45467;BME280;31212;49.734;8.490;2023-04-23T02:11:38;99978.78;;;11.74;100.00
45467;BME280;31212;49.734;8.490;2023-04-23T02:14:07;99981.44;;;11.69;100.00
45467;BME280;31212;49.734;8.490;2023-04-23T02:16:35;99990.97;;;11.69;100.00
45467;BME280;31212;49.734;8.490;2023-04-23T02:19:01;99980.56;;;11.69;100.00
45467;BME280;31212;49.734;8.490;2023-04-23T02:21:28;99989.22;;;11.69;100.00
45467;BME280;31212;49.734;8.490;2023-04-23T02:23:54;99986.69;;;11.61;100.00
45467;BME280;31212;49.734;8.490;2023-04-23T02:26:21;99979.75;;;11.62;100.00
45467;BME280;31212;49.734;8.490;2023-04-23T02:28:49;99984.13;;;11.57;100.00
45467;BME280;31212;49.734;8.490;2023-04-23T02:31:17;99984.94;;;11.60;100.00
45467;BME280;31212;49.734;8.490;2023-04-23T02:33:45;99978.91;;;11.60;100.00
45467;BME280;31212;49.734;8.490;2023-04-23T02:36:12;99983.22;;;11.61;100.00
45467;BME280;31212;49.734;8.490;2023-04-23T02:38:38;99978.03;;;11.61;100.00
45467;BME280;31212;49.734;8.490;2023-04-23T02:41:06;99986.66;;;11.66;100.00
45467;BME280;31212;49.734;8.490;2023-04-23T02:43:33;99985.78;;;11.69;100.00
45467;BME280;31212;49.734;8.490;2023-04-23T02:45:59;99977.09;;;11.68;100.00
45467;BME280;31212;49.734;8.490;2023-04-23T02:48:34;99980.56;;;11.67;100.00
45467;BME280;31212;49.734;8.490;2023-04-23T02:51:01;99986.63;;;11.69;100.00
45467;BME280;31212;49.734;8.490;2023-04-23T02:53:27;99977.06;;;11.74;100.00
45467;BME280;31212;49.734;8.490;2023-04-23T02:55:54;99982.31;;;11.67;100.00
45467;BME280;31212;49.734;8.490;2023-04-23T02:58:20;99981.44;;;11.65;100.00
45467;BME280;31212;49.734;8.490;2023-04-23T03:00:49;99980.63;;;11.63;100.00
45467;BME280;31212;49.734;8.490;2023-04-23T03:03:16;99985.78;;;11.69;100.00
45467;BME280;31212;49.734;8.490;2023-04-23T03:05:44;99989.25;;;11.66;100.00
45467;BME280;31212;49.734;8.490;2023-04-23T03:08:11;99985.78;;;11.64;100.00
45467;BME280;31212;49.734;8.490;2023-04-23T03:10:37;99983.19;;;11.64;100.00
45467;BME280;31212;49.734;8.490;2023-04-23T03:13:03;99981.47;;;11.61;100.00
45467;BME280;31212;49.734;8.490;2023-04-23T03:15:30;99983.22;;;11.63;100.00
45467;BME280;31212;49.734;8.490;2023-04-23T03:17:56;99988.38;;;11.67;100.00
45467;BME280;31212;49.734;8.490;2023-04-23T03:20:24;99989.25;;;11.66;100.00
45467;BME280;31212;49.734;8.490;2023-04-23T03:22:52;99981.47;;;11.61;100.00
45467;BME280;31212;49.734;8.490;2023-04-23T03:25:19;99984.06;;;11.63;100.00
45467;BME280;31212;49.734;8.490;2023-04-23T03:27:47;99989.25;;;11.68;100.00
45467;BME280;31212;49.734;8.490;2023-04-23T03:30:14;99990.97;;;11.69;100.00
45467;BME280;31212;49.734;8.490;2023-04-23T03:32:41;99999.63;;;11.71;100.00
45467;BME280;31212;49.734;8.490;2023-04-23T03:35:08;99993.59;;;11.64;100.00
45467;BME280;31212;49.734;8.490;2023-04-23T03:37:37;99995.38;;;11.62;100.00
45467;BME280;31212;49.734;8.490;2023-04-23T03:40:07;99983.22;;;11.61;100.00
45467;BME280;31212;49.734;8.490;2023-04-23T03:42:37;99982.38;;;11.62;100.00
45467;BME280;31212;49.734;8.490;2023-04-23T03:45:05;99983.25;;;11.56;100.00
45467;BME280;31212;49.734;8.490;2023-04-23T03:47:33;99971.13;;;11.54;100.00
45467;BME280;31212;49.734;8.490;2023-04-23T03:49:59;99976.34;;;11.52;100.00
45467;BME280;31212;49.734;8.490;2023-04-23T03:52:26;99984.13;;;11.54;100.00
45467;BME280;31212;49.734;8.490;2023-04-23T03:54:53;99981.56;;;11.51;100.00
45467;BME280;31212;49.734;8.490;2023-04-23T03:57:27;99982.44;;;11.50;100.00
45467;BME280;31212;49.734;8.490;2023-04-23T04:00:00;99987.66;;;11.51;100.00
45467;BME280;31212;49.734;8.490;2023-04-23T04:02:27;99984.19;;;11.49;100.00
45467;BME280;31212;49.734;8.490;2023-04-23T04:04:54;99987.66;;;11.47;100.00
45467;BME280;31212;49.734;8.490;2023-04-23T04:07:23;99997.22;;;11.44;100.00
45467;BME280;31212;49.734;8.490;2023-04-23T04:09:50;99986.84;;;11.44;100.00
45467;BME280;31212;49.734;8.490;2023-04-23T04:12:16;99987.69;;;11.43;100.00
45467;BME280;31212;49.734;8.490;2023-04-23T04:14:44;99994.63;;;11.43;100.00
45467;BME280;31212;49.734;8.490;2023-04-23T04:17:11;99999.84;;;11.38;100.00
45467;BME280;31212;49.734;8.490;2023-04-23T04:19:40;99995.56;;;11.34;100.00
45467;BME280;31212;49.734;8.490;2023-04-23T04:22:06;99993.78;;;11.36;100.00
45467;BME280;31212;49.734;8.490;2023-04-23T04:24:33;99999.03;;;11.33;100.00
45467;BME280;31212;49.734;8.490;2023-04-23T04:26:59;99995.56;;;11.34;100.00
45467;BME280;31212;49.734;8.490;2023-04-23T04:29:26;99997.28;;;11.32;100.00
45467;BME280;31212;49.734;8.490;2023-04-23T04:31:54;99995.56;;;11.33;100.00
45467;BME280;31212;49.734;8.490;2023-04-23T04:34:20;99999.94;;;11.26;100.00
45467;BME280;31212;49.734;8.490;2023-04-23T04:36:47;99993.03;;;11.22;100.00
45467;BME280;31212;49.734;8.490;2023-04-23T04:39:15;99990.44;;;11.19;100.00
45467;BME280;31212;49.734;8.490;2023-04-23T04:41:43;99990.44;;;11.22;100.00
45467;BME280;31212;49.734;8.490;2023-04-23T04:44:10;99992.19;;;11.23;100.00
45467;BME280;31212;49.734;8.490;2023-04-23T04:46:38;99989.56;;;11.23;100.00
45467;BME280;31212;49.734;8.490;2023-04-23T04:49:09;99986.09;;;11.21;100.00
45467;BME280;31212;49.734;8.490;2023-04-23T04:51:36;99991.31;;;11.21;100.00
45467;BME280;31212;49.734;8.490;2023-04-23T04:54:03;99986.97;;;11.21;100.00
45467;BME280;31212;49.734;8.490;2023-04-23T04:56:30;99984.38;;;11.23;100.00
45467;BME280;31212;49.734;8.490;2023-04-23T04:58:57;99984.34;;;11.27;100.00
45467;BME280;31212;49.734;8.490;2023-04-23T05:01:23;99985.16;;;11.30;100.00
45467;BME280;31212;49.734;8.490;2023-04-23T05:03:51;99985.19;;;11.28;100.00
45467;BME280;31212;49.734;8.490;2023-04-23T05:06:19;100000.78;;;11.28;100.00
45467;BME280;31212;49.734;8.490;2023-04-23T05:08:45;99996.44;;;11.30;100.00
45467;BME280;31212;49.734;8.490;2023-04-23T05:11:13;100005.06;;;11.37;100.00
45467;BME280;31212;49.734;8.490;2023-04-23T05:13:40;100007.66;;;11.37;100.00
45467;BME280;31212;49.734;8.490;2023-04-23T05:16:06;99999.81;;;11.43;100.00
45467;BME280;31212;49.734;8.490;2023-04-23T05:18:33;100001.53;;;11.45;100.00
45467;BME280;31212;49.734;8.490;2023-04-23T05:21:00;100004.97;;;11.49;100.00
45467;BME280;31212;49.734;8.490;2023-04-23T05:23:28;100000.53;;;11.60;100.00
45467;BME280;31212;49.734;8.490;2023-04-23T05:25:54;100001.38;;;11.70;100.00
45467;BME280;31212;49.734;8.490;2023-04-23T05:28:22;99992.72;;;11.67;100.00
45467;BME280;31212;49.734;8.490;2023-04-23T05:30:49;100002.16;;;11.75;100.00
45467;BME280;31212;49.734;8.490;2023-04-23T05:33:16;99998.69;;;11.76;100.00
45467;BME280;31212;49.734;8.490;2023-04-23T05:35:42;99996.16;;;11.70;100.00
45467;BME280;31212;49.734;8.490;2023-04-23T05:38:09;99993.53;;;11.72;100.00
45467;BME280;31212;49.734;8.490;2023-04-23T05:40:37;99989.19;;;11.74;100.00
45467;BME280;31212;49.734;8.490;2023-04-23T05:43:04;99983.09;;;11.75;100.00
45467;BME280;31212;49.734;8.490;2023-04-23T05:45:30;99984.81;;;11.77;100.00
45467;BME280;31212;49.734;8.490;2023-04-23T05:47:56;99989.97;;;11.85;100.00
45467;BME280;31212;49.734;8.490;2023-04-23T05:50:24;99993.41;;;11.87;100.00
45467;BME280;31212;49.734;8.490;2023-04-23T05:52:50;99993.41;;;11.86;100.00
45467;BME280;31212;49.734;8.490;2023-04-23T05:55:18;99991.63;;;11.95;100.00
45467;BME280;31212;49.734;8.490;2023-04-23T05:57:46;99988.13;;;12.01;100.00
45467;BME280;31212;49.734;8.490;2023-04-23T06:00:13;99991.56;;;12.02;100.00
45467;BME280;31212;49.734;8.490;2023-04-23T06:02:40;99987.91;;;12.21;100.00
45467;BME280;31212;49.734;8.490;2023-04-23T06:05:07;99980.78;;;12.37;100.00
45467;BME280;31212;49.734;8.490;2023-04-23T06:07:33;99988.44;;;12.50;100.00
45467;BME280;31212;49.734;8.490;2023-04-23T06:10:00;99985.59;;;12.71;100.00
45467;BME280;31212;49.734;8.490;2023-04-23T06:12:27;99984.53;;;12.88;99.51
45467;BME280;31212;49.734;8.490;2023-04-23T06:14:55;99972.00;;;13.15;98.34
45467;BME280;31212;49.734;8.490;2023-04-23T06:17:21;99970.00;;;13.34;96.92
45467;BME280;31212;49.734;8.490;2023-04-23T06:19:47;99942.56;;;13.64;94.56
45467;BME280;31212;49.734;8.490;2023-04-23T06:22:14;99933.75;;;14.18;92.31
45467;BME280;31212;49.734;8.490;2023-04-23T06:24:40;99885.22;;;14.52;89.15
45467;BME280;31212;49.734;8.490;2023-04-23T06:27:07;99849.41;;;14.57;86.66
45467;BME280;31212;49.734;8.490;2023-04-23T06:29:37;99821.00;;;14.82;84.64
45467;BME280;31212;49.734;8.490;2023-04-23T06:32:06;99800.19;;;15.13;83.35
45467;BME280;31212;49.734;8.490;2023-04-23T06:34:32;99753.09;;;15.48;81.45
45467;BME280;31212;49.734;8.490;2023-04-23T06:36:59;99684.16;;;15.79;78.84
45467;BME280;31212;49.734;8.490;2023-04-23T06:39:25;99624.06;;;16.58;76.34
45467;BME280;31212;49.734;8.490;2023-04-23T06:41:52;99545.19;;;17.37;73.55
45467;BME280;31212;49.734;8.490;2023-04-23T06:44:31;99477.16;;;17.76;71.20
45467;BME280;31212;49.734;8.490;2023-04-23T06:46:58;99427.16;;;18.00;69.46
45467;BME280;31212;49.734;8.490;2023-04-23T06:49:27;99417.06;;;17.89;69.17
45467;BME280;31212;49.734;8.490;2023-04-23T06:51:53;99378.38;;;17.94;68.11
45467;BME280;31212;49.734;8.490;2023-04-23T06:54:20;99386.84;;;18.01;67.96
45467;BME280;31212;49.734;8.490;2023-04-23T06:56:46;99387.47;;;17.44;68.10
45467;BME280;31212;49.734;8.490;2023-04-23T06:59:13;99476.50;;;17.05;69.85
45467;BME280;31212;49.734;8.490;2023-04-23T07:01:44;99444.06;;;18.13;68.26
45467;BME280;31212;49.734;8.490;2023-04-23T07:04:11;99352.22;;;19.25;65.70
45467;BME280;31212;49.734;8.490;2023-04-23T07:06:39;99289.28;;;19.03;64.45
45467;BME280;31212;49.734;8.490;2023-04-23T07:09:05;99246.22;;;19.56;62.78
45467;BME280;31212;49.734;8.490;2023-04-23T07:11:32;99194.97;;;19.46;61.51
45467;BME280;31212;49.734;8.490;2023-04-23T07:14:00;99226.00;;;19.23;62.11
45467;BME280;31212;49.734;8.490;2023-04-23T07:16:27;99225.09;;;19.74;61.28
45467;BME280;31212;49.734;8.490;2023-04-23T07:18:57;99208.50;;;20.05;60.56
45467;BME280;31212;49.734;8.490;2023-04-23T07:21:25;99136.00;;;20.44;58.70
45467;BME280;31212;49.734;8.490;2023-04-23T07:23:55;99083.00;;;20.79;57.35
45467;BME280;31212;49.734;8.490;2023-04-23T07:26:22;99100.03;;;21.60;56.85
45467;BME280;31212;49.734;8.490;2023-04-23T07:28:49;99017.47;;;22.11;54.56
45467;BME280;31212;49.734;8.490;2023-04-23T07:31:16;99084.44;;;21.14;56.37
45467;BME280;31212;49.734;8.490;2023-04-23T07:33:42;99145.22;;;19.91;58.47
45467;BME280;31212;49.734;8.490;2023-04-23T07:36:09;99239.91;;;19.25;60.41
45467;BME280;31212;49.734;8.490;2023-04-23T07:38:36;99230.06;;;18.22;60.99
45467;BME280;31212;49.734;8.490;2023-04-23T07:41:04;99342.81;;;19.02;62.11
45467;BME280;31212;49.734;8.490;2023-04-23T07:43:30;99247.34;;;19.35;60.28
45467;BME280;31212;49.734;8.490;2023-04-23T07:45:57;99326.50;;;19.30;61.71
45467;BME280;31212;49.734;8.490;2023-04-23T07:48:23;99233.88;;;19.57;59.95
45467;BME280;31212;49.734;8.490;2023-04-23T07:50:50;99260.25;;;20.06;59.69
45467;BME280;31212;49.734;8.490;2023-04-23T07:53:16;99177.75;;;19.90;58.75
45467;BME280;31212;49.734;8.490;2023-04-23T07:55:43;99171.44;;;18.74;59.63
45467;BME280;31212;49.734;8.490;2023-04-23T07:58:10;99247.38;;;18.07;61.39
45467;BME280;31212;49.734;8.490;2023-04-23T08:00:37;99336.78;;;17.44;63.38
45467;BME280;31212;49.734;8.490;2023-04-23T08:03:03;99348.44;;;17.37;63.49
45467;BME280;31212;49.734;8.490;2023-04-23T08:05:30;99360.78;;;17.12;63.86
45467;BME280;31212;49.734;8.490;2023-04-23T08:07:56;99431.53;;;16.68;65.71
45467;BME280;31212;49.734;8.490;2023-04-23T08:10:23;99461.72;;;17.24;65.54
45467;BME280;31212;49.734;8.490;2023-04-23T08:12:49;99430.97;;;18.91;63.74
45467;BME280;31212;49.734;8.490;2023-04-23T08:15:17;99238.69;;;20.62;59.10
45467;BME280;31212;49.734;8.490;2023-04-23T08:17:43;99033.00;;;22.03;54.24
45467;BME280;31212;49.734;8.490;2023-04-23T08:20:10;98905.50;;;22.64;51.55
45467;BME280;31212;49.734;8.490;2023-04-23T08:22:36;98851.97;;;23.09;49.66
45467;BME280;31212;49.734;8.490;2023-04-23T08:25:04;98842.88;;;23.13;49.59
45467;BME280;31212;49.734;8.490;2023-04-23T08:27:31;98753.94;;;23.46;47.77
45467;BME280;31212;49.734;8.490;2023-04-23T08:29:57;98822.69;;;23.47;48.67
45467;BME280;31212;49.734;8.490;2023-04-23T08:32:25;98834.78;;;23.85;47.96
45467;BME280;31212;49.734;8.490;2023-04-23T08:34:52;98695.03;;;24.22;45.78
45467;BME280;31212;49.734;8.490;2023-04-23T08:37:18;98649.16;;;23.87;45.16
45467;BME280;31212;49.734;8.490;2023-04-23T08:39:45;98787.41;;;22.63;47.71
45467;BME280;31212;49.734;8.490;2023-04-23T08:42:16;98860.94;;;22.58;48.82
45467;BME280;31212;49.734;8.490;2023-04-23T08:44:45;98837.56;;;23.84;47.20
45467;BME280;31212;49.734;8.490;2023-04-23T08:47:14;98770.34;;;25.39;44.56
45467;BME280;31212;49.734;8.490;2023-04-23T08:49:45;98698.41;;;25.93;42.99
45467;BME280;31212;49.734;8.490;2023-04-23T08:52:15;98693.59;;;26.17;42.62
45467;BME280;31212;49.734;8.490;2023-04-23T08:54:45;98624.38;;;24.53;42.52
45467;BME280;31212;49.734;8.490;2023-04-23T08:57:15;98750.09;;;24.73;43.71
45467;BME280;31212;49.734;8.490;2023-04-23T08:59:41;98708.09;;;24.34;43.66
45467;BME280;31212;49.734;8.490;2023-04-23T09:02:08;98740.19;;;23.05;45.28
45467;BME280;31212;49.734;8.490;2023-04-23T09:04:35;98817.31;;;21.49;47.85
45467;BME280;31212;49.734;8.490;2023-04-23T09:07:04;98921.28;;;21.06;49.50
45467;BME280;31212;49.734;8.490;2023-04-23T09:09:35;99003.19;;;21.46;50.24
45467;BME280;31212;49.734;8.490;2023-04-23T09:12:04;98896.72;;;22.88;47.05
45467;BME280;31212;49.734;8.490;2023-04-23T09:14:31;98736.13;;;22.77;44.74
45467;BME280;31212;49.734;8.490;2023-04-23T09:16:58;98746.50;;;23.62;44.02
45467;BME280;31212;49.734;8.490;2023-04-23T09:19:25;98729.50;;;23.76;44.05
45467;BME280;31212;49.734;8.490;2023-04-23T09:21:53;98708.16;;;24.23;42.95
45467;BME280;31212;49.734;8.490;2023-04-23T09:24:22;98670.72;;;23.82;42.72
45467;BME280;31212;49.734;8.490;2023-04-23T09:26:50;98677.69;;;24.17;42.71
45467;BME280;31212;49.734;8.490;2023-04-23T09:29:19;98677.16;;;24.24;42.48
45467;BME280;31212;49.734;8.490;2023-04-23T09:31:49;98652.16;;;24.91;41.56
45467;BME280;31212;49.734;8.490;2023-04-23T09:34:16;98631.00;;;25.32;40.84
45467;BME280;31212;49.734;8.490;2023-04-23T09:36:44;98630.78;;;25.35;41.21
45467;BME280;31212;49.734;8.490;2023-04-23T09:39:11;98662.09;;;24.89;41.82
45467;BME280;31212;49.734;8.490;2023-04-23T09:41:39;98651.59;;;24.88;41.62
45467;BME280;31212;49.734;8.490;2023-04-23T09:44:06;98683.13;;;23.71;43.53
45467;BME280;31212;49.734;8.490;2023-04-23T09:46:34;98767.69;;;22.91;45.49
45467;BME280;31212;49.734;8.490;2023-04-23T09:49:02;98830.13;;;21.81;47.42
45467;BME280;31212;49.734;8.490;2023-04-23T09:51:30;98890.72;;;21.44;48.53
45467;BME280;31212;49.734;8.490;2023-04-23T09:53:57;98866.91;;;20.91;48.65
45467;BME280;31212;49.734;8.490;2023-04-23T09:56:23;98925.16;;;20.73;49.87
45467;BME280;31212;49.734;8.490;2023-04-23T09:58:51;98858.97;;;20.34;49.35
45467;BME280;31212;49.734;8.490;2023-04-23T10:01:26;98944.31;;;20.32;50.56
45467;BME280;31212;49.734;8.490;2023-04-23T10:03:53;98903.28;;;20.28;49.81
45467;BME280;31212;49.734;8.490;2023-04-23T10:06:26;98885.78;;;20.12;49.69
45467;BME280;31212;49.734;8.490;2023-04-23T10:08:54;98890.97;;;20.14;49.82
45467;BME280;31212;49.734;8.490;2023-04-23T10:11:21;98966.59;;;20.12;51.12
45467;BME280;31212;49.734;8.490;2023-04-23T10:13:48;98977.91;;;20.14;51.42
45467;BME280;31212;49.734;8.490;2023-04-23T10:16:17;98967.13;;;20.33;51.00
45467;BME280;31212;49.734;8.490;2023-04-23T10:18:44;98940.47;;;20.81;49.84
45467;BME280;31212;49.734;8.490;2023-04-23T10:21:11;98910.44;;;21.38;48.76
45467;BME280;31212;49.734;8.490;2023-04-23T10:23:41;98872.53;;;22.05;47.49
45467;BME280;31212;49.734;8.490;2023-04-23T10:26:11;98833.47;;;21.31;47.82
45467;BME280;31212;49.734;8.490;2023-04-23T10:28:43;98826.41;;;21.05;47.98
45467;BME280;31212;49.734;8.490;2023-04-23T10:31:12;98811.47;;;21.18;47.65
45467;BME280;31212;49.734;8.490;2023-04-23T10:33:40;98799.25;;;21.30;47.06
45467;BME280;31212;49.734;8.490;2023-04-23T10:36:08;98782.19;;;21.61;46.48
45467;BME280;31212;49.734;8.490;2023-04-23T10:38:35;98833.75;;;21.54;47.56
45467;BME280;31212;49.734;8.490;2023-04-23T10:41:02;98841.66;;;21.67;47.85
45467;BME280;31212;49.734;8.490;2023-04-23T10:43:29;98782.91;;;22.02;46.16
45467;BME280;31212;49.734;8.490;2023-04-23T10:45:56;98809.22;;;22.16;46.73
45467;BME280;31212;49.734;8.490;2023-04-23T10:48:26;98713.38;;;22.26;45.35
45467;BME280;31212;49.734;8.490;2023-04-23T10:50:57;98706.84;;;22.91;44.46
45467;BME280;31212;49.734;8.490;2023-04-23T10:53:24;98677.72;;;22.91;44.35
45467;BME280;31212;49.734;8.490;2023-04-23T10:56:03;98651.97;;;22.82;43.88
45467;BME280;31212;49.734;8.490;2023-04-23T10:58:46;98739.78;;;22.01;46.11
45467;BME280;31212;49.734;8.490;2023-04-23T11:01:13;98787.41;;;22.26;46.78
45467;BME280;31212;49.734;8.490;2023-04-23T11:03:41;98656.97;;;21.77;45.28
45467;BME280;31212;49.734;8.490;2023-04-23T11:06:12;98681.50;;;20.61;46.69
45467;BME280;31212;49.734;8.490;2023-04-23T11:08:50;98774.91;;;20.72;47.91
45467;BME280;31212;49.734;8.490;2023-04-23T11:11:16;98772.78;;;20.08;48.53
45467;BME280;31212;49.734;8.490;2023-04-23T11:13:50;98840.72;;;19.88;49.64
45467;BME280;31212;49.734;8.490;2023-04-23T11:16:20;98841.06;;;20.11;49.51
45467;BME280;31212;49.734;8.490;2023-04-23T11:18:57;98859.47;;;20.54;49.30
45467;BME280;31212;49.734;8.490;2023-04-23T11:21:57;98858.41;;;21.13;48.73
45467;BME280;31212;49.734;8.490;2023-04-23T11:24:26;98826.16;;;21.22;48.14
45467;BME280;31212;49.734;8.490;2023-04-23T11:26:53;98680.88;;;20.58;46.95
45467;BME280;31212;49.734;8.490;2023-04-23T11:29:21;98658.88;;;20.44;46.87
45467;BME280;31212;49.734;8.490;2023-04-23T11:31:48;98733.47;;;20.46;47.85
45467;BME280;31212;49.734;8.490;2023-04-23T11:34:15;98751.50;;;20.53;48.15
45467;BME280;31212;49.734;8.490;2023-04-23T11:36:42;98692.44;;;20.70;46.97
45467;BME280;31212;49.734;8.490;2023-04-23T11:39:10;98734.25;;;20.89;47.27
45467;BME280;31212;49.734;8.490;2023-04-23T11:41:37;98671.50;;;21.32;45.86
45467;BME280;31212;49.734;8.490;2023-04-23T11:44:03;98578.38;;;22.05;43.62
45467;BME280;31212;49.734;8.490;2023-04-23T11:46:31;98555.63;;;22.26;43.49
45467;BME280;31212;49.734;8.490;2023-04-23T11:48:58;98549.19;;;22.42;43.27
45467;BME280;31212;49.734;8.490;2023-04-23T11:51:25;98556.56;;;22.49;43.34
45467;BME280;31212;49.734;8.490;2023-04-23T11:53:52;98543.47;;;22.24;43.31
45467;BME280;31212;49.734;8.490;2023-04-23T11:56:20;98522.72;;;21.95;43.34
45467;BME280;31212;49.734;8.490;2023-04-23T11:58:57;98469.38;;;21.54;42.96
45467;BME280;31212;49.734;8.490;2023-04-23T12:01:24;98544.88;;;21.31;44.22
45467;BME280;31212;49.734;8.490;2023-04-23T12:03:50;98690.56;;;20.84;46.85
45467;BME280;31212;49.734;8.490;2023-04-23T12:06:17;98644.56;;;20.48;46.52
45467;BME280;31212;49.734;8.490;2023-04-23T12:08:45;98616.94;;;20.41;46.39
45467;BME280;31212;49.734;8.490;2023-04-23T12:11:12;98546.53;;;20.56;45.39
45467;BME280;31212;49.734;8.490;2023-04-23T12:13:40;98554.78;;;20.77;45.35
45467;BME280;31212;49.734;8.490;2023-04-23T12:16:08;98592.09;;;21.36;45.11
45467;BME280;31212;49.734;8.490;2023-04-23T12:18:39;98471.50;;;21.73;42.99
45467;BME280;31212;49.734;8.490;2023-04-23T12:21:10;98422.03;;;21.75;42.21
45467;BME280;31212;49.734;8.490;2023-04-23T12:23:38;98458.06;;;22.23;42.42
45467;BME280;31212;49.734;8.490;2023-04-23T12:26:09;98431.31;;;22.39;41.90
45467;BME280;31212;49.734;8.490;2023-04-23T12:28:45;98356.41;;;22.73;40.43
45467;BME280;31212;49.734;8.490;2023-04-23T12:31:17;98330.09;;;23.15;39.81
45467;BME280;31212;49.734;8.490;2023-04-23T12:33:44;98319.09;;;23.31;39.51
45467;BME280;31212;49.734;8.490;2023-04-23T12:36:13;98259.59;;;23.56;38.36
45467;BME280;31212;49.734;8.490;2023-04-23T12:38:40;98188.38;;;23.32;37.80
45467;BME280;31212;49.734;8.490;2023-04-23T12:41:07;98217.53;;;22.99;38.10
45467;BME280;31212;49.734;8.490;2023-04-23T12:43:34;98168.66;;;23.04;37.45
45467;BME280;31212;49.734;8.490;2023-04-23T12:46:01;98254.38;;;23.45;38.19
45467;BME280;31212;49.734;8.490;2023-04-23T12:48:28;98244.81;;;23.32;38.41
45467;BME280;31212;49.734;8.490;2023-04-23T12:50:54;98220.59;;;23.37;37.85
45467;BME280;31212;49.734;8.490;2023-04-23T12:53:21;98259.94;;;23.42;38.59
45467;BME280;31212;49.734;8.490;2023-04-23T12:55:47;98232.97;;;23.58;38.02
45467;BME280;31212;49.734;8.490;2023-04-23T12:58:14;98279.78;;;23.78;38.38